Time;durP1;ratioP1;P1;durP2;ratioP2;P2;SDS_P1;SDS_P2;PMS_P1;PMS_P2;Temp;Humidity;BMP_temperature;BMP_pressure;BME280_temperature;BME280_humidity;BME280_pressure;Samples;Min_cycle;Max_cycle;Signal;HPM_P1;HPM_P2
2023/08/31 00:01:30;;;;;;;7.68;3.63;;;;;;;;;;5004345;28;20018;-72
2023/08/31 00:03:55;;;;;;;7.85;3.05;;;;;;;;;;5003220;28;20025;-71
2023/08/31 00:06:21;;;;;;;11.80;3.37;;;;;;;;;;5003767;28;20070;-71
2023/08/31 00:08:47;;;;;;;11.73;4.22;;;;;;;;;;5010793;28;20257;-72
2023/08/31 00:11:12;;;;;;;7.57;4.07;;;;;;;;;;5007378;28;20439;-71
2023/08/31 00:13:38;;;;;;;11.40;5.32;;;;;;;;;;5005922;28;20467;-71
2023/08/31 00:16:04;;;;;;;12.20;4.78;;;;;;;;;;5004907;28;20068;-71
2023/08/31 00:18:30;;;;;;;10.70;4.47;;;;;;;;;;5002634;28;20479;-71
2023/08/31 00:20:55;;;;;;;8.38;4.32;;;;;;;;;;4998179;28;20061;-71
2023/08/31 00:23:20;;;;;;;10.95;3.55;;;;;;;;;;5000924;28;20222;-71
2023/08/31 00:25:47;;;;;;;8.60;4.13;;;;;;;;;;5001063;28;20495;-71
2023/08/31 00:28:15;;;;;;;9.57;5.03;;;;;;;;;;5006859;28;20479;-71
2023/08/31 00:30:40;;;;;;;10.07;3.55;;;;;;;;;;5010953;28;20075;-71
2023/08/31 00:33:06;;;;;;;7.00;3.63;;;;;;;;;;5006177;28;20022;-71
2023/08/31 00:35:33;;;;;;;15.73;3.97;;;;;;;;;;5007776;28;20029;-71
2023/08/31 00:37:58;;;;;;;14.23;4.05;;;;;;;;;;5010828;28;20391;-72
2023/08/31 00:40:24;;;;;;;25.95;4.53;;;;;;;;;;5010880;28;20108;-71
2023/08/31 00:42:49;;;;;;;9.52;4.32;;;;;;;;;;5006390;28;20121;-71
2023/08/31 00:45:15;;;;;;;11.30;3.80;;;;;;;;;;5006738;28;20545;-71
2023/08/31 00:47:40;;;;;;;8.23;4.00;;;;;;;;;;5005094;28;20287;-71
2023/08/31 00:50:07;;;;;;;7.50;4.20;;;;;;;;;;5003375;28;20025;-71
2023/08/31 00:52:32;;;;;;;9.70;3.65;;;;;;;;;;5010589;28;20409;-72
2023/08/31 00:54:57;;;;;;;11.52;3.88;;;;;;;;;;5010755;28;20018;-71
2023/08/31 00:57:26;;;;;;;10.68;3.80;;;;;;;;;;5009711;28;20475;-71
2023/08/31 00:59:51;;;;;;;10.02;3.67;;;;;;;;;;5010055;28;20049;-71
2023/08/31 01:02:24;;;;;;;10.15;4.13;;;;;;;;;;5004697;28;20054;-71
2023/08/31 01:05:09;;;;;;;17.25;4.15;;;;;;;;;;5006270;28;20022;-71
2023/08/31 01:07:57;;;;;;;9.07;3.97;;;;;;;;;;5007557;28;20036;-71
2023/08/31 01:10:31;;;;;;;11.40;3.97;;;;;;;;;;5008306;28;20542;-72
2023/08/31 01:13:01;;;;;;;15.40;5.63;;;;;;;;;;5002293;28;20030;-71
2023/08/31 01:15:29;;;;;;;14.82;4.55;;;;;;;;;;5010552;28;20018;-71
2023/08/31 01:17:56;;;;;;;6.72;3.30;;;;;;;;;;5003060;28;20021;-71
2023/08/31 01:20:40;;;;;;;14.52;3.38;;;;;;;;;;5004881;28;20097;-71
2023/08/31 01:23:10;;;;;;;15.15;4.60;;;;;;;;;;5009526;28;20022;-71
2023/08/31 01:25:35;;;;;;;;;;;;;;;;;;5010156;28;20260;-72
2023/08/31 01:28:00;;;;;;;7.43;3.85;;;;;;;;;;5009888;28;19906;-72
2023/08/31 01:30:29;;;;;;;15.82;4.20;;;;;;;;;;5007875;28;20394;-71
2023/08/31 01:32:54;;;;;;;14.90;3.80;;;;;;;;;;5005461;28;20034;-71
2023/08/31 01:35:19;;;;;;;9.57;3.43;;;;;;;;;;5005553;28;20026;-71
2023/08/31 01:37:45;;;;;;;22.27;4.22;;;;;;;;;;5007712;28;20312;-71
2023/08/31 01:40:19;;;;;;;13.35;3.72;;;;;;;;;;5009886;28;20100;-72
2023/08/31 01:42:45;;;;;;;7.82;4.13;;;;;;;;;;5010304;28;20049;-71
2023/08/31 01:45:11;;;;;;;11.48;3.83;;;;;;;;;;5009297;28;20108;-71
2023/08/31 01:47:36;;;;;;;9.57;3.80;;;;;;;;;;5009253;28;20112;-71
2023/08/31 01:50:01;;;;;;;16.60;4.60;;;;;;;;;;5009159;28;20552;-71
2023/08/31 01:52:26;;;;;;;17.58;3.65;;;;;;;;;;5008353;28;20030;-71
2023/08/31 01:54:52;;;;;;;8.38;3.30;;;;;;;;;;5010069;28;20065;-71
2023/08/31 01:57:17;;;;;;;9.93;3.55;;;;;;;;;;5010657;28;20430;-72
2023/08/31 01:59:42;;;;;;;16.45;3.67;;;;;;;;;;5008115;28;20060;-71
2023/08/31 02:02:08;;;;;;;7.88;3.20;;;;;;;;;;5009414;28;20045;-71
2023/08/31 02:04:33;;;;;;;8.83;3.60;;;;;;;;;;5006809;28;20084;-71
2023/08/31 02:06:58;;;;;;;6.50;3.27;;;;;;;;;;5012492;28;20352;-71
2023/08/31 02:09:23;;;;;;;14.85;4.35;;;;;;;;;;5010925;28;20769;-71
2023/08/31 02:11:49;;;;;;;13.85;3.97;;;;;;;;;;5013129;28;20026;-71
2023/08/31 02:14:14;;;;;;;8.45;3.67;;;;;;;;;;5012560;28;20034;-71
2023/08/31 02:16:39;;;;;;;7.72;3.65;;;;;;;;;;5013235;28;20376;-71
2023/08/31 02:19:04;;;;;;;8.35;4.18;;;;;;;;;;5012229;28;20414;-71
2023/08/31 02:21:29;;;;;;;11.43;3.60;;;;;;;;;;5011824;28;20075;-71
2023/08/31 02:23:55;;;;;;;12.50;4.30;;;;;;;;;;5011741;28;20022;-72
2023/08/31 02:26:21;;;;;;;10.15;4.20;;;;;;;;;;5013271;28;20034;-71
2023/08/31 02:28:46;;;;;;;6.30;3.42;;;;;;;;;;5012103;28;20497;-72
2023/08/31 02:31:13;;;;;;;14.95;4.72;;;;;;;;;;5011997;28;20057;-71
2023/08/31 02:33:38;;;;;;;11.90;4.50;;;;;;;;;;5012109;28;20026;-71
2023/08/31 02:36:04;;;;;;;7.87;3.93;;;;;;;;;;5010838;28;20030;-71
2023/08/31 02:38:29;;;;;;;9.65;3.55;;;;;;;;;;5005903;28;20630;-71
2023/08/31 02:40:54;;;;;;;14.10;3.83;;;;;;;;;;5009404;28;20026;-71
2023/08/31 02:43:19;;;;;;;10.33;4.00;;;;;;;;;;5013011;28;20296;-71
2023/08/31 02:45:44;;;;;;;11.38;4.43;;;;;;;;;;5013181;28;20730;-71
2023/08/31 02:48:09;;;;;;;12.33;4.00;;;;;;;;;;5006690;28;20048;-72
2023/08/31 02:50:35;;;;;;;13.13;3.70;;;;;;;;;;5008932;28;20265;-71
2023/08/31 02:53:00;;;;;;;13.25;4.40;;;;;;;;;;5011740;28;20077;-71
2023/08/31 02:55:25;;;;;;;11.60;3.83;;;;;;;;;;5007227;28;20264;-71
2023/08/31 02:57:50;;;;;;;6.50;3.70;;;;;;;;;;5009342;28;20018;-71
2023/08/31 03:00:16;;;;;;;6.77;3.73;;;;;;;;;;5007223;28;20272;-71
2023/08/31 03:02:41;;;;;;;11.38;3.88;;;;;;;;;;5007729;28;20305;-71
2023/08/31 03:05:07;;;;;;;10.85;4.40;;;;;;;;;;5008825;28;20104;-71
2023/08/31 03:07:32;;;;;;;12.18;4.15;;;;;;;;;;5004131;28;20037;-71
2023/08/31 03:09:57;;;;;;;14.07;4.65;;;;;;;;;;5008334;28;20079;-72
2023/08/31 03:12:22;;;;;;;13.40;3.60;;;;;;;;;;5008478;28;20034;-71
2023/08/31 03:14:48;;;;;;;10.83;4.27;;;;;;;;;;5002298;28;20265;-71
2023/08/31 03:17:13;;;;;;;13.07;4.70;;;;;;;;;;5006216;28;20291;-71
2023/08/31 03:19:38;;;;;;;10.53;4.23;;;;;;;;;;5010030;28;20025;-71
2023/08/31 03:22:03;;;;;;;18.95;4.30;;;;;;;;;;5009417;28;20304;-71
2023/08/31 03:24:28;;;;;;;15.32;4.60;;;;;;;;;;5011916;28;20108;-71
2023/08/31 03:26:54;;;;;;;12.32;3.90;;;;;;;;;;5011476;28;20022;-71
2023/08/31 03:29:19;;;;;;;7.57;3.73;;;;;;;;;;5010993;28;20026;-71
2023/08/31 03:31:44;;;;;;;9.00;4.35;;;;;;;;;;5010731;28;20618;-71
2023/08/31 03:34:10;;;;;;;15.52;4.57;;;;;;;;;;5006132;28;20034;-71
2023/08/31 03:36:35;;;;;;;9.10;3.70;;;;;;;;;;5010174;28;20383;-71
2023/08/31 03:39:00;;;;;;;19.00;5.97;;;;;;;;;;5011676;28;20099;-71
2023/08/31 03:41:25;;;;;;;7.07;3.97;;;;;;;;;;5006422;28;20630;-71
2023/08/31 03:43:50;;;;;;;8.17;3.70;;;;;;;;;;5011819;28;20276;-71
2023/08/31 03:46:15;;;;;;;10.33;3.60;;;;;;;;;;5010304;28;20276;-71
2023/08/31 03:48:41;;;;;;;8.40;3.83;;;;;;;;;;5011754;28;20766;-71
2023/08/31 03:51:06;;;;;;;7.57;3.63;;;;;;;;;;5005965;28;20277;-71
2023/08/31 03:53:31;;;;;;;10.68;4.13;;;;;;;;;;5010536;28;20292;-71
2023/08/31 03:55:56;;;;;;;9.63;3.75;;;;;;;;;;5010744;28;20013;-71
2023/08/31 03:58:21;;;;;;;9.40;3.20;;;;;;;;;;5011230;28;20108;-71
2023/08/31 04:00:50;;;;;;;10.25;3.97;;;;;;;;;;5008661;28;20037;-71
2023/08/31 04:03:15;;;;;;;11.63;3.88;;;;;;;;;;5008168;28;20028;-71
2023/08/31 04:05:40;;;;;;;16.70;4.50;;;;;;;;;;5006599;28;20025;-71
2023/08/31 04:08:06;;;;;;;6.53;3.67;;;;;;;;;;5009500;28;20382;-71
2023/08/31 04:10:32;;;;;;;13.52;3.72;;;;;;;;;;5011162;28;20379;-71
2023/08/31 04:12:57;;;;;;;9.65;4.32;;;;;;;;;;5011229;28;20105;-71
2023/08/31 04:15:22;;;;;;;18.77;4.03;;;;;;;;;;5010428;28;20440;-71
2023/08/31 04:17:49;;;;;;;6.13;3.42;;;;;;;;;;5010212;28;20053;-71
2023/08/31 04:20:14;;;;;;;12.77;3.63;;;;;;;;;;5010426;28;20029;-71
2023/08/31 04:22:39;;;;;;;13.48;4.38;;;;;;;;;;5009599;28;20383;-71
2023/08/31 04:25:05;;;;;;;8.63;4.33;;;;;;;;;;5003889;28;20387;-71
2023/08/31 04:27:31;;;;;;;11.52;4.15;;;;;;;;;;5006073;28;20304;-71
2023/08/31 04:29:57;;;;;;;13.25;4.35;;;;;;;;;;5005553;28;20051;-71
2023/08/31 04:32:22;;;;;;;14.57;4.32;;;;;;;;;;5009618;28;20025;-71
2023/08/31 04:34:47;;;;;;;9.02;4.00;;;;;;;;;;5011115;28;20014;-71
2023/08/31 04:37:12;;;;;;;9.40;4.23;;;;;;;;;;5010695;28;20485;-71
2023/08/31 04:39:37;;;;;;;8.77;3.63;;;;;;;;;;5007014;28;20283;-71
2023/08/31 04:42:03;;;;;;;12.17;4.07;;;;;;;;;;5008465;28;20276;-71
2023/08/31 04:44:28;;;;;;;7.18;3.88;;;;;;;;;;5007930;28;20269;-71
2023/08/31 04:46:54;;;;;;;10.90;3.90;;;;;;;;;;5002644;28;20453;-71
2023/08/31 04:49:20;;;;;;;6.78;3.58;;;;;;;;;;5008803;28;20315;-71
2023/08/31 04:51:46;;;;;;;12.75;3.35;;;;;;;;;;5009448;28;20014;-71
2023/08/31 04:54:11;;;;;;;13.98;3.90;;;;;;;;;;5010431;28;20457;-71
2023/08/31 04:56:37;;;;;;;8.63;4.10;;;;;;;;;;5005537;28;20073;-71
2023/08/31 04:59:05;;;;;;;8.00;3.33;;;;;;;;;;4997491;28;20022;-71
2023/08/31 05:01:30;;;;;;;9.00;4.00;;;;;;;;;;5007271;28;20018;-71
2023/08/31 05:03:55;;;;;;;9.15;4.03;;;;;;;;;;5010628;28;20072;-71
2023/08/31 05:06:20;;;;;;;11.37;3.30;;;;;;;;;;5010465;28;20029;-71
2023/08/31 05:08:49;;;;;;;5.40;3.27;;;;;;;;;;5010732;28;20267;-71
2023/08/31 05:11:14;;;;;;;9.00;3.50;;;;;;;;;;5008047;28;20348;-71
2023/08/31 05:13:42;;;;;;;7.82;3.35;;;;;;;;;;5000420;28;20026;-71
2023/08/31 05:16:07;;;;;;;8.52;3.63;;;;;;;;;;5004135;28;20014;-71
2023/08/31 05:18:32;;;;;;;11.77;4.30;;;;;;;;;;5004650;28;20021;-71
2023/08/31 05:20:58;;;;;;;7.07;3.22;;;;;;;;;;5010403;28;20014;-71
2023/08/31 05:23:23;;;;;;;12.43;3.40;;;;;;;;;;5001724;28;20030;-71
2023/08/31 05:25:48;;;;;;;15.48;3.95;;;;;;;;;;5000982;28;20025;-71
2023/08/31 05:28:13;;;;;;;11.67;3.83;;;;;;;;;;4997676;28;20042;-71
2023/08/31 05:30:50;;;;;;;7.85;3.78;;;;;;;;;;5001603;28;20264;-71
2023/08/31 05:33:15;;;;;;;8.98;4.20;;;;;;;;;;5007232;28;20061;-71
2023/08/31 05:35:40;;;;;;;7.45;3.47;;;;;;;;;;5010041;28;20054;-71
2023/08/31 05:38:05;;;;;;;8.55;3.55;;;;;;;;;;5001395;28;20018;-71
2023/08/31 05:40:30;;;;;;;9.10;3.40;;;;;;;;;;5007874;28;20017;-71
2023/08/31 05:42:56;;;;;;;8.17;3.90;;;;;;;;;;5010037;28;20291;-71
2023/08/31 05:45:21;;;;;;;5.95;3.45;;;;;;;;;;5008016;28;20716;-71
2023/08/31 05:47:46;;;;;;;6.88;3.67;;;;;;;;;;5002916;28;20023;-71
2023/08/31 05:50:11;;;;;;;9.60;3.90;;;;;;;;;;5006226;28;20398;-71
2023/08/31 05:52:37;;;;;;;11.33;3.47;;;;;;;;;;5006835;28;20022;-71
2023/08/31 05:55:03;;;;;;;8.35;3.45;;;;;;;;;;5005145;28;20785;-71
2023/08/31 05:57:28;;;;;;;12.77;3.42;;;;;;;;;;5007895;28;20014;-71
2023/08/31 05:59:54;;;;;;;10.82;4.13;;;;;;;;;;5013766;28;20102;-71
2023/08/31 06:02:19;;;;;;;7.65;4.18;;;;;;;;;;5010650;28;20014;-71
2023/08/31 06:04:44;;;;;;;9.38;3.65;;;;;;;;;;5013461;28;20325;-71
2023/08/31 06:07:09;;;;;;;12.57;4.20;;;;;;;;;;5013258;28;20018;-71
2023/08/31 06:09:34;;;;;;;7.57;3.13;;;;;;;;;;5007003;28;20021;-72
2023/08/31 06:12:00;;;;;;;6.23;3.73;;;;;;;;;;5011116;28;20099;-71
2023/08/31 06:14:25;;;;;;;6.75;3.40;;;;;;;;;;5013219;28;20285;-71
2023/08/31 06:16:52;;;;;;;10.38;3.38;;;;;;;;;;5011520;28;20013;-71
2023/08/31 06:19:17;;;;;;;12.15;4.15;;;;;;;;;;5011867;28;20018;-71
2023/08/31 06:21:42;;;;;;;9.93;3.72;;;;;;;;;;5012579;28;20076;-71
2023/08/31 06:24:12;;;;;;;12.83;3.30;;;;;;;;;;5007676;28;20105;-71
2023/08/31 06:26:38;;;;;;;6.95;2.88;;;;;;;;;;5003203;28;20753;-72
2023/08/31 06:29:03;;;;;;;9.45;4.90;;;;;;;;;;5012595;28;20025;-71
2023/08/31 06:31:28;;;;;;;9.52;3.35;;;;;;;;;;5008228;28;20056;-72
2023/08/31 06:33:54;;;;;;;11.50;3.83;;;;;;;;;;5012966;28;20040;-71
2023/08/31 06:36:19;;;;;;;10.23;3.43;;;;;;;;;;5012857;28;20034;-71
2023/08/31 06:38:44;;;;;;;7.37;3.03;;;;;;;;;;5007570;28;20328;-72
2023/08/31 06:41:09;;;;;;;8.63;2.92;;;;;;;;;;5001741;28;20292;-72
2023/08/31 06:43:35;;;;;;;14.77;3.25;;;;;;;;;;5009579;28;20014;-72
2023/08/31 06:46:00;;;;;;;8.20;3.33;;;;;;;;;;5007987;28;20494;-72
2023/08/31 06:48:25;;;;;;;9.87;2.73;;;;;;;;;;5011997;28;20288;-72
2023/08/31 06:50:50;;;;;;;7.13;3.13;;;;;;;;;;5011946;28;20276;-72
2023/08/31 06:53:15;;;;;;;8.40;2.70;;;;;;;;;;5010750;28;20292;-72
2023/08/31 06:55:40;;;;;;;10.23;4.00;;;;;;;;;;5009269;28;20674;-72
2023/08/31 06:58:06;;;;;;;9.30;2.43;;;;;;;;;;5012071;28;20358;-72
2023/08/31 07:00:32;;;;;;;9.87;2.57;;;;;;;;;;5012260;28;20404;-72
2023/08/31 07:02:57;;;;;;;7.85;2.45;;;;;;;;;;4999674;28;20274;-72
2023/08/31 07:05:25;;;;;;;10.85;2.35;;;;;;;;;;5008280;28;20037;-72
2023/08/31 07:07:52;;;;;;;11.23;2.60;;;;;;;;;;5003350;28;20028;-72
2023/08/31 07:10:17;;;;;;;12.18;2.13;;;;;;;;;;5000974;28;20026;-72
2023/08/31 07:12:42;;;;;;;3.93;1.73;;;;;;;;;;4998396;28;20109;-72
2023/08/31 07:15:07;;;;;;;10.43;2.30;;;;;;;;;;4999014;28;20025;-72
2023/08/31 07:17:32;;;;;;;8.45;2.50;;;;;;;;;;5002000;28;20018;-72
2023/08/31 07:19:58;;;;;;;5.90;2.10;;;;;;;;;;5001093;28;20022;-68
2023/08/31 07:22:23;;;;;;;9.77;2.27;;;;;;;;;;5010317;28;20269;-72
2023/08/31 07:24:50;;;;;;;5.50;1.60;;;;;;;;;;5012308;28;20030;-73
2023/08/31 07:27:15;;;;;;;8.63;2.10;;;;;;;;;;5010246;28;20268;-72
2023/08/31 07:29:40;;;;;;;9.77;1.90;;;;;;;;;;5003915;28;20029;-73
2023/08/31 07:32:05;;;;;;;3.93;1.73;;;;;;;;;;5002028;28;20276;-72
2023/08/31 07:34:31;;;;;;;5.88;1.40;;;;;;;;;;5010156;28;20044;-72
2023/08/31 07:36:56;;;;;;;6.55;2.47;;;;;;;;;;5005868;28;20418;-72
2023/08/31 07:39:21;;;;;;;5.10;1.52;;;;;;;;;;5008612;28;20025;-73
2023/08/31 07:41:47;;;;;;;5.73;1.73;;;;;;;;;;5012091;28;20033;-72
2023/08/31 07:44:12;;;;;;;9.10;1.90;;;;;;;;;;5011232;28;20037;-73
2023/08/31 07:46:37;;;;;;;5.17;1.67;;;;;;;;;;5011453;28;20033;-72
2023/08/31 07:49:03;;;;;;;9.60;1.55;;;;;;;;;;5011780;28;20529;-73
2023/08/31 07:51:29;;;;;;;6.38;1.60;;;;;;;;;;5015555;28;20030;-72
2023/08/31 07:53:54;;;;;;;8.47;1.90;;;;;;;;;;5009417;28;20032;-72
2023/08/31 07:56:19;;;;;;;7.37;2.03;;;;;;;;;;5006569;28;20010;-72
2023/08/31 07:58:44;;;;;;;6.00;2.28;;;;;;;;;;5006939;28;20025;-72
2023/08/31 08:01:10;;;;;;;8.02;2.05;;;;;;;;;;5008025;28;20022;-73
2023/08/31 08:03:35;;;;;;;8.67;1.70;;;;;;;;;;5011498;28;20030;-72
2023/08/31 08:06:00;;;;;;;4.77;1.73;;;;;;;;;;5011618;28;20025;-72
2023/08/31 08:08:25;;;;;;;4.83;1.87;;;;;;;;;;5011367;28;20032;-72
2023/08/31 08:10:54;;;;;;;2.83;1.47;;;;;;;;;;5010797;28;20026;-72
2023/08/31 08:13:19;;;;;;;4.97;1.73;;;;;;;;;;5009933;28;20661;-72
2023/08/31 08:15:45;;;;;;;6.03;1.67;;;;;;;;;;5011318;28;20109;-72
2023/08/31 08:18:10;;;;;;;4.75;1.45;;;;;;;;;;5008396;28;20136;-72
2023/08/31 08:20:35;;;;;;;8.20;2.07;;;;;;;;;;5011027;28;20353;-72
2023/08/31 08:23:01;;;;;;;5.53;1.60;;;;;;;;;;5011355;28;20261;-72
2023/08/31 08:25:26;;;;;;;6.60;1.63;;;;;;;;;;5010083;28;20680;-71
2023/08/31 08:27:51;;;;;;;5.63;1.80;;;;;;;;;;5007722;28;20027;-71
2023/08/31 08:30:16;;;;;;;6.13;2.03;;;;;;;;;;5010794;28;20022;-72
2023/08/31 08:32:42;;;;;;;7.15;1.80;;;;;;;;;;5010960;28;20108;-72
2023/08/31 08:35:07;;;;;;;5.28;1.80;;;;;;;;;;5007707;28;20018;-71
2023/08/31 08:37:33;;;;;;;8.32;2.08;;;;;;;;;;5010679;28;20493;-72
2023/08/31 08:39:58;;;;;;;5.32;1.90;;;;;;;;;;5011034;28;20029;-71
2023/08/31 08:42:24;;;;;;;6.05;2.20;;;;;;;;;;5010600;28;20014;-71
2023/08/31 08:44:50;;;;;;;7.20;2.00;;;;;;;;;;5010181;28;20295;-71
2023/08/31 08:47:15;;;;;;;14.50;2.75;;;;;;;;;;5010419;28;20184;-71
2023/08/31 08:49:41;;;;;;;6.63;2.00;;;;;;;;;;5006652;28;20056;-71
2023/08/31 08:52:06;;;;;;;9.18;1.55;;;;;;;;;;5010577;28;20076;-71
2023/08/31 08:54:32;;;;;;;7.13;1.80;;;;;;;;;;5010369;28;20030;-71
2023/08/31 08:56:57;;;;;;;2.88;1.15;;;;;;;;;;5009479;28;20017;-71
2023/08/31 08:59:23;;;;;;;5.40;1.73;;;;;;;;;;5005116;28;20415;-71
2023/08/31 09:01:48;;;;;;;4.55;1.65;;;;;;;;;;5007181;28;20072;-71
2023/08/31 09:04:14;;;;;;;9.47;1.97;;;;;;;;;;5010720;28;20030;-71
2023/08/31 09:06:39;;;;;;;10.55;1.77;;;;;;;;;;5010238;28;20272;-71
2023/08/31 09:09:04;;;;;;;9.60;1.65;;;;;;;;;;5010701;28;20054;-71
2023/08/31 09:11:30;;;;;;;8.60;1.73;;;;;;;;;;5008800;28;20036;-71
2023/08/31 09:13:56;;;;;;;6.75;1.15;;;;;;;;;;5009554;28;20292;-71
2023/08/31 09:16:29;;;;;;;9.68;1.95;;;;;;;;;;5009773;28;20026;-71
2023/08/31 09:18:54;;;;;;;5.43;1.75;;;;;;;;;;5006678;28;20539;-71
2023/08/31 09:21:20;;;;;;;10.32;1.83;;;;;;;;;;5010367;28;20018;-71
2023/08/31 09:24:00;;;;;;;9.48;1.88;;;;;;;;;;5010588;28;20026;-71
2023/08/31 09:26:25;;;;;;;9.85;1.60;;;;;;;;;;4992496;28;20037;-71
2023/08/31 09:28:51;;;;;;;5.90;1.33;;;;;;;;;;5007465;28;20011;-71
2023/08/31 09:31:17;;;;;;;3.88;1.30;;;;;;;;;;5004453;28;20303;-71
2023/08/31 09:33:51;;;;;;;10.82;1.50;;;;;;;;;;4997155;28;20475;-71
2023/08/31 09:36:17;;;;;;;8.68;2.28;;;;;;;;;;4997306;28;20357;-71
2023/08/31 09:38:45;;;;;;;3.60;1.50;;;;;;;;;;5003487;28;20029;-71
2023/08/31 09:41:11;;;;;;;8.93;1.70;;;;;;;;;;5004082;28;20088;-71
2023/08/31 09:43:36;;;;;;;8.68;2.10;;;;;;;;;;5001794;28;20343;-71
2023/08/31 09:46:02;;;;;;;7.77;1.93;;;;;;;;;;5003713;28;20026;-71
2023/08/31 09:48:28;;;;;;;7.28;1.55;;;;;;;;;;5001431;28;20288;-71
2023/08/31 09:50:54;;;;;;;11.38;1.25;;;;;;;;;;5005023;28;20030;-71
2023/08/31 09:53:20;;;;;;;4.55;1.48;;;;;;;;;;5003618;28;20030;-71
2023/08/31 09:55:46;;;;;;;8.75;1.75;;;;;;;;;;5009905;28;20109;-71
2023/08/31 09:58:12;;;;;;;5.30;1.58;;;;;;;;;;5008950;28;20087;-71
2023/08/31 10:00:37;;;;;;;7.78;1.90;;;;;;;;;;5007012;28;20416;-71
2023/08/31 10:03:04;;;;;;;4.18;1.77;;;;;;;;;;5004280;28;20022;-71
2023/08/31 10:05:29;;;;;;;13.38;1.55;;;;;;;;;;4998789;28;20033;-71
2023/08/31 10:07:55;;;;;;;8.23;1.70;;;;;;;;;;5006794;28;20057;-71
2023/08/31 10:10:22;;;;;;;5.40;1.45;;;;;;;;;;5003886;28;20044;-71
2023/08/31 10:12:48;;;;;;;6.78;1.52;;;;;;;;;;5002031;28;20018;-72
2023/08/31 10:15:14;;;;;;;4.97;1.20;;;;;;;;;;5009039;28;20156;-71
2023/08/31 10:17:40;;;;;;;11.95;1.83;;;;;;;;;;5005292;28;20104;-71
2023/08/31 10:20:06;;;;;;;5.85;1.30;;;;;;;;;;5005416;28;20026;-71
2023/08/31 10:22:32;;;;;;;5.63;1.35;;;;;;;;;;5008050;28;20479;-71
2023/08/31 10:25:03;;;;;;;11.95;1.95;;;;;;;;;;5008741;28;20030;-71
2023/08/31 10:27:28;;;;;;;5.65;1.40;;;;;;;;;;5011767;28;20398;-71
2023/08/31 10:29:54;;;;;;;8.20;2.08;;;;;;;;;;5010629;28;20021;-71
2023/08/31 10:32:19;;;;;;;3.70;1.55;;;;;;;;;;5005867;28;20025;-71
2023/08/31 10:35:03;;;;;;;5.97;2.00;;;;;;;;;;5005321;28;20022;-71
2023/08/31 10:37:29;;;;;;;4.43;1.88;;;;;;;;;;5008120;28;20052;-71
2023/08/31 10:40:06;;;;;;;2.13;1.00;;;;;;;;;;5013052;28;20426;-71
2023/08/31 10:42:31;;;;;;;7.50;1.58;;;;;;;;;;5011438;28;20076;-71
2023/08/31 10:45:05;;;;;;;5.10;1.13;;;;;;;;;;5013262;28;20018;-71
2023/08/31 10:47:42;;;;;;;4.38;1.35;;;;;;;;;;5011634;28;20281;-71
2023/08/31 10:50:20;;;;;;;3.13;1.50;;;;;;;;;;5011677;28;20052;-71
2023/08/31 10:52:46;;;;;;;3.30;1.20;;;;;;;;;;5005580;28;20029;-71
2023/08/31 10:55:11;;;;;;;12.13;1.60;;;;;;;;;;5002765;28;20398;-71
2023/08/31 10:57:36;;;;;;;2.95;1.23;;;;;;;;;;5006306;28;20029;-71
2023/08/31 11:00:02;;;;;;;3.35;1.50;;;;;;;;;;5005824;28;20025;-71
2023/08/31 11:02:34;;;;;;;5.40;1.30;;;;;;;;;;5007688;28;20076;-71
2023/08/31 11:05:03;;;;;;;6.50;1.58;;;;;;;;;;5008326;28;20018;-72
2023/08/31 11:07:29;;;;;;;5.38;1.45;;;;;;;;;;4994646;28;20615;-71
2023/08/31 11:10:06;;;;;;;10.25;1.95;;;;;;;;;;5012487;28;20018;-71
2023/08/31 11:12:31;;;;;;;6.53;2.10;;;;;;;;;;5012500;28;20076;-71
2023/08/31 11:14:57;;;;;;;5.57;1.42;;;;;;;;;;5012661;28;20029;-71
2023/08/31 11:17:22;;;;;;;8.17;1.60;;;;;;;;;;5011042;28;20022;-71
2023/08/31 11:19:47;;;;;;;7.83;1.70;;;;;;;;;;5006740;28;20327;-72
2023/08/31 11:22:12;;;;;;;4.50;1.45;;;;;;;;;;5012094;28;20257;-72
2023/08/31 11:24:38;;;;;;;6.17;1.47;;;;;;;;;;5012146;28;20029;-72
2023/08/31 11:27:07;;;;;;;5.07;1.50;;;;;;;;;;5012376;28;20300;-72
2023/08/31 11:29:32;;;;;;;3.85;1.55;;;;;;;;;;5011700;28;20020;-72
2023/08/31 11:32:00;;;;;;;6.60;1.33;;;;;;;;;;5006733;28;20014;-72
2023/08/31 11:34:25;;;;;;;5.20;1.73;;;;;;;;;;5007275;28;20483;-72
2023/08/31 11:36:50;;;;;;;4.90;1.60;;;;;;;;;;5008381;28;20072;-72
2023/08/31 11:39:17;;;;;;;11.07;1.43;;;;;;;;;;4994224;28;20021;-72
2023/08/31 11:41:43;;;;;;;4.30;1.58;;;;;;;;;;5011930;28;20257;-72
2023/08/31 11:44:09;;;;;;;4.55;1.85;;;;;;;;;;5011153;28;20145;-72
2023/08/31 11:46:35;;;;;;;5.90;2.42;;;;;;;;;;5006546;28;20510;-72
2023/08/31 11:49:00;;;;;;;5.90;1.98;;;;;;;;;;5002337;28;20113;-72
2023/08/31 11:51:29;;;;;;;5.45;1.73;;;;;;;;;;5006022;28;20048;-72
2023/08/31 11:53:56;;;;;;;9.93;2.00;;;;;;;;;;5011761;28;20025;-72
2023/08/31 11:56:21;;;;;;;8.35;2.17;;;;;;;;;;5007181;28;20367;-72
2023/08/31 11:58:47;;;;;;;4.97;1.67;;;;;;;;;;5010032;28;20018;-72
2023/08/31 12:01:17;;;;;;;5.60;1.55;;;;;;;;;;5006483;28;20077;-72
2023/08/31 12:03:44;;;;;;;;;;;;;;;;;;5009465;28;20037;-72
2023/08/31 12:06:09;;;;;;;7.40;1.45;;;;;;;;;;5006450;28;19948;-72
2023/08/31 12:08:36;;;;;;;5.93;1.40;;;;;;;;;;5009371;28;20180;-72
2023/08/31 12:11:02;;;;;;;3.47;1.40;;;;;;;;;;5009513;28;20042;-72
2023/08/31 12:13:28;;;;;;;7.22;2.42;;;;;;;;;;5010140;28;20501;-72
2023/08/31 12:15:54;;;;;;;5.47;1.05;;;;;;;;;;5000958;28;20354;-72
2023/08/31 12:18:19;;;;;;;5.10;1.60;;;;;;;;;;5004061;28;20029;-72
2023/08/31 12:20:50;;;;;;;2.27;0.83;;;;;;;;;;5000723;28;20487;-72
2023/08/31 12:23:16;;;;;;;5.72;2.00;;;;;;;;;;5000253;28;20848;-72
2023/08/31 12:25:48;;;;;;;5.25;1.80;;;;;;;;;;4999984;28;20113;-72
2023/08/31 12:28:13;;;;;;;7.50;1.55;;;;;;;;;;5001178;28;20492;-72
2023/08/31 12:30:42;;;;;;;5.13;1.40;;;;;;;;;;5002341;28;20044;-72
2023/08/31 12:33:07;;;;;;;7.63;1.08;;;;;;;;;;4999918;28;20342;-72
2023/08/31 12:35:32;;;;;;;3.23;1.20;;;;;;;;;;5000888;28;20105;-72
2023/08/31 12:37:57;;;;;;;11.27;1.57;;;;;;;;;;4999499;28;20498;-72
2023/08/31 12:40:22;;;;;;;1.80;0.63;;;;;;;;;;5007923;28;20292;-72
2023/08/31 12:42:47;;;;;;;3.95;1.45;;;;;;;;;;5004494;28;20065;-72
2023/08/31 12:45:13;;;;;;;6.80;1.57;;;;;;;;;;4998737;28;20475;-72
2023/08/31 12:47:38;;;;;;;4.77;1.33;;;;;;;;;;5006909;28;20286;-72
2023/08/31 12:50:03;;;;;;;4.53;1.50;;;;;;;;;;5004228;28;20277;-72
2023/08/31 12:52:29;;;;;;;5.78;1.48;;;;;;;;;;5005898;28;20347;-72
2023/08/31 12:54:54;;;;;;;8.30;2.17;;;;;;;;;;4998244;28;20375;-72
2023/08/31 12:57:19;;;;;;;3.03;1.40;;;;;;;;;;5000193;28;20376;-73
2023/08/31 12:59:44;;;;;;;1.93;0.90;;;;;;;;;;5003669;28;20256;-73
2023/08/31 13:02:11;;;;;;;4.13;1.10;;;;;;;;;;5006481;28;20368;-73
2023/08/31 13:04:37;;;;;;;10.13;2.05;;;;;;;;;;5010300;28;20382;-73
2023/08/31 13:07:02;;;;;;;4.78;1.48;;;;;;;;;;5010320;28;20028;-73
2023/08/31 13:09:28;;;;;;;5.90;0.98;;;;;;;;;;5007902;28;20029;-73
2023/08/31 13:11:53;;;;;;;8.00;1.53;;;;;;;;;;5000261;28;20109;-73
2023/08/31 13:14:18;;;;;;;5.45;1.55;;;;;;;;;;5007904;28;20021;-73
2023/08/31 13:16:43;;;;;;;5.00;1.37;;;;;;;;;;5003381;28;20688;-73
2023/08/31 13:19:09;;;;;;;6.70;1.37;;;;;;;;;;5003816;28;20762;-73
2023/08/31 13:21:34;;;;;;;4.30;1.17;;;;;;;;;;5001836;28;20273;-73
2023/08/31 13:24:00;;;;;;;5.63;1.57;;;;;;;;;;5008494;28;20087;-74
2023/08/31 13:26:25;;;;;;;7.13;1.52;;;;;;;;;;5006087;28;20284;-73
2023/08/31 13:28:50;;;;;;;3.90;1.10;;;;;;;;;;5003003;28;20031;-73
2023/08/31 13:31:16;;;;;;;11.02;1.80;;;;;;;;;;5006247;28;20233;-73
2023/08/31 13:33:42;;;;;;;10.60;1.50;;;;;;;;;;5008913;28;20483;-73
2023/08/31 13:36:08;;;;;;;5.90;1.30;;;;;;;;;;5005864;28;20010;-73
2023/08/31 13:38:33;;;;;;;6.68;1.90;;;;;;;;;;5002705;28;20033;-73
2023/08/31 13:40:59;;;;;;;7.80;2.00;;;;;;;;;;5000864;28;20179;-73
2023/08/31 13:43:25;;;;;;;8.63;1.90;;;;;;;;;;5001070;28;20782;-73
2023/08/31 13:45:50;;;;;;;6.80;1.52;;;;;;;;;;4997387;28;20028;-73
2023/08/31 13:48:16;;;;;;;6.32;1.75;;;;;;;;;;5003117;28;20113;-73
2023/08/31 13:50:41;;;;;;;7.90;1.90;;;;;;;;;;5003908;28;20077;-73
2023/08/31 13:53:06;;;;;;;7.63;1.93;;;;;;;;;;4998749;28;20372;-73
2023/08/31 13:55:34;;;;;;;8.25;2.10;;;;;;;;;;5003981;28;20026;-73
2023/08/31 13:58:03;;;;;;;17.70;2.10;;;;;;;;;;5001924;28;20022;-73
2023/08/31 14:00:29;;;;;;;15.52;2.28;;;;;;;;;;5012390;28;20017;-73
2023/08/31 14:02:54;;;;;;;5.83;1.80;;;;;;;;;;5009801;28;20556;-73
2023/08/31 14:05:19;;;;;;;6.20;2.00;;;;;;;;;;5014955;28;20058;-73
2023/08/31 14:07:45;;;;;;;10.20;2.55;;;;;;;;;;5006300;28;20026;-73
2023/08/31 14:10:10;;;;;;;6.22;2.30;;;;;;;;;;5006054;28;20029;-73
2023/08/31 14:12:35;;;;;;;8.30;4.47;;;;;;;;;;5013363;28;20022;-73
2023/08/31 14:15:03;;;;;;;9.52;4.40;;;;;;;;;;5013647;28;20021;-73
2023/08/31 14:17:28;;;;;;;4.55;2.22;;;;;;;;;;5004296;28;20042;-73
2023/08/31 14:19:53;;;;;;;12.70;1.33;;;;;;;;;;5011570;28;20049;-73
2023/08/31 14:22:19;;;;;;;4.55;1.85;;;;;;;;;;5004911;28;20014;-73
2023/08/31 14:24:44;;;;;;;4.87;1.83;;;;;;;;;;5012679;28;20483;-73
2023/08/31 14:27:09;;;;;;;4.57;1.60;;;;;;;;;;5008692;28;20671;-73
2023/08/31 14:29:36;;;;;;;9.63;2.03;;;;;;;;;;5012663;28;20397;-73
2023/08/31 14:32:02;;;;;;;9.93;1.73;;;;;;;;;;5012847;28;20519;-73
2023/08/31 14:34:27;;;;;;;5.80;1.88;;;;;;;;;;5004525;28;20118;-73